• Join FlightAware (Why Join?)
  • Login
  • US Flag GB Flag 
20:31 EDT


 

Airport Tracker/Info


-or-


 

Live Flight TrackerFlight Track Log ✈ N2317S ✈ 27-Jun-2013 ✈ KBTV - KBTV

Flight Track Log - Related Links

Times and Time Zones

All times are in EDT time to prevent confusion due to time zone crossing. See the N2317S flight status page for this flight to view local times or setup timezone preferences in your user account.

Time Position Orientation Groundspeed Altitude Reporting Facility
EDT Latitude Longitude Course Direction KTS MPH feet Rate Location/Type
09:17 44.4719 -73.1533 263° West  Level Estimated
09:18 44.4719 -73.1533 262° West  Level Estimated
09:19 44.4719 -73.1533 263° West  Level Estimated
09:20 44.4719 -73.1533 262° West  Level Estimated
09:20 44.3836 -73.4858 262° West 143 165 7,000  Level Boston Center
09:21 44.4719 -73.1533 262° West  Level Estimated
09:21 44.4061 -73.5386 301° West 150 173 7,000  Level Boston Center
09:22 44.4719 -73.1533 262° West  Level Estimated
09:22 44.4264 -73.5911 298° West 156 180 7,000  Level Boston Center
09:23 44.4719 -73.1533 262° West  Level Estimated
09:23 44.4489 -73.6439 301° West 161 185 7,000  Level Boston Center
09:24 44.4719 -73.1533 262° West  Level Estimated
09:24 44.4731 -73.7056 299° West 156 180 6,500  Level Boston Center
09:25 44.4719 -73.1533 262° West  Level Estimated
09:25 44.4953 -73.7642 298° West 162 186 6,000  Level Boston Center
09:26 44.4719 -73.1533 262° West  Level Estimated
09:26 44.5178 -73.8200 299° West 162 186 6,000  Level Boston Center
09:27 44.5358 -73.8669 298° West 151 174 6,000  Level Boston Center
09:28 44.5497 -73.9169 291° West 140 161 6,000  Level Boston Center
09:29 44.5636 -73.9669 291° West 133 153 6,000  Level Boston Center
09:30 44.5756 -74.0139 290° West 133 153 6,000 -240 Level Boston Center
09:31 44.5500 -74.0481 224° Southwest 121 139 5,600 -780 Descending Boston Center
09:32 44.5142 -74.0819 214° Southwest 139 160 4,500 -900 Descending Boston Center
09:33 44.4825 -74.1131 215° Southwest 149 171 3,800 -480 Descending Boston Center
09:34 44.4467 -74.1442 212° Southwest 149 171 3,600 1,560 Descending Boston Center
09:35 44.4086 -74.1722 208° Southwest 149 171 7,000 1,680 Climbing Boston Center
09:36 44.3728 -74.2000 209° Southwest 149 171 7,000  Level Boston Center
09:37 44.3350 -74.2281 208° Southwest 149 171 7,000  Level Boston Center
09:38 44.3203 -74.2392 208° Southwest 149 171 7,000  Level Boston Center
09:39 44.3203 -74.2392 133° Southeast 149 171 7,000 480 Level Boston Center
09:40 44.3203 -74.2392 133° Southeast 149 171 8,000 -420 Climbing Boston Center
09:42 44.3969 -74.2561 351° North 160 184 5,800 -540 Descending Boston Center
09:43 44.3833 -74.2003 109° East 145 167 6,500 600 Climbing Boston Center
09:44 44.3619 -74.2258 221° Southwest 87 100 7,100 600 Climbing Boston Center
09:45 44.3928 -74.2647 318° Northwest 56 64 7,700 420 Climbing Boston Center
09:46 44.3633 -74.2783 198° South 74 85 8,000 60 Climbing Boston Center
09:47 44.3200 -74.2478 153° Southeast 115 132 7,900 -60 Descending Boston Center
09:48 44.2747 -74.2203 156° South 153 176 7,900  Level Boston Center
09:49 44.2292 -74.1900 155° Southeast 173 199 7,900  Level Boston Center
09:50 44.1861 -74.1539 149° Southeast 173 199 8,000  Climbing Boston Center
09:51 44.1511 -74.1211 146° Southeast 173 199 8,000  Level Boston Center
09:52 44.1122 -74.0794 142° Southeast 179 206 8,000  Level Boston Center
09:53 44.0708 -74.0467 150° Southeast 174 200 8,000  Level Boston Center
09:54 44.0275 -74.0253 160° South 174 200 8,000  Level Boston Center
09:55 43.9819 -73.9953 155° Southeast 168 193 8,000  Level Boston Center
09:56 43.9406 -73.9711 157° South 166 191 8,000 -60 Level Boston Center
09:57 43.8953 -73.9439 157° South 166 191 7,900 -60 Descending Boston Center
09:58 43.8539 -73.9200 157° South 173 199 7,900  Level Boston Center
09:59 43.8103 -73.8958 158° South 173 199 7,900  Level Boston Center
10:00 43.7711 -73.8692 154° Southeast 173 199 8,000  Climbing Boston Center
10:01 43.7297 -73.8422 155° Southeast 173 199 7,900 -60 Descending Boston Center
10:02 43.6864 -73.8183 158° South 173 199 7,900  Level Boston Center
10:03 43.6428 -73.7942 158° South 173 199 7,900  Level Boston Center
10:04 43.6014 -73.7675 155° Southeast 173 199 7,900  Level Boston Center
10:05 43.5619 -73.7494 162° South 166 191 8,000  Climbing Boston Center
10:06 43.5208 -73.7200 153° Southeast 171 197 8,000  Level Boston Center
10:07 43.4792 -73.6992 160° South 169 194 8,000  Level Boston Center
10:08 43.4378 -73.6725 155° Southeast 167 192 8,000  Level Boston Center
10:09 43.3944 -73.6317 146° Southeast 168 193 8,000 -180 Level Boston Center
10:10 43.3508 -73.6364 185° South 169 194 7,700 -420 Descending Boston Center
10:11 43.3050 -73.6328 177° South 172 198 7,200 -540 Descending Boston Center
10:12 43.2611 -73.6261 174° South 167 192 6,700 -540 Descending Boston Center
10:13 43.2133 -73.6194 174° South 168 193 6,200 -480 Descending Boston Center
10:14 43.1717 -73.6103 171° South 169 194 5,700 -540 Descending Boston Center
10:15 43.1281 -73.5978 168° South 155 178 5,100 -600 Descending Boston Center
10:16 43.0969 -73.5775 155° Southeast 141 162 4,600 -660 Descending Boston Center
10:17 43.0617 -73.5711 172° South 147 169 3,900 -720 Descending Boston Center
10:18 43.0822 -73.5969 317° Northwest 67 77 3,200 -540 Descending Boston Center
10:19 43.1239 -73.6008 356° North 85 98 2,900 -120 Descending Boston Center
10:20 43.1572 -73.6014 359° North 113 130 3,000 -120 Climbing Boston Center
10:21 43.1906 -73.6047 356° North 120 138 2,700 -180 Descending Boston Center
10:22 43.2281 -73.6083 356° North 138 159 2,700 60 Level Boston Center
10:23 43.2633 -73.6092 359° North 126 145 2,900 360 Climbing Boston Center
10:25 43.3261 -73.6103 359° North 134 154 3,800 480 Climbing Boston Center
10:26 43.3614 -73.6022 North 134 154 4,400 600 Climbing Boston Center
10:27 43.3992 -73.5889 14° North 139 160 5,000 540 Climbing Boston Center
10:28 43.4389 -73.5725 17° North 144 166 5,700 660 Climbing Boston Center
10:29 43.4828 -73.5561 15° North 144 166 6,500 600 Climbing Boston Center
10:30 43.5225 -73.5397 17° North 144 166 7,000 240 Climbing Boston Center
10:31 43.5728 -73.5206 15° North 149 171 7,000  Level Boston Center
10:32 43.6167 -73.5011 18° North 155 178 7,000  Level Boston Center
10:33 43.6628 -73.4819 17° North 164 189 7,000  Level Boston Center
10:35 43.7086 -73.4683 12° North 164 189 7,000  Level Boston Center
10:36 43.7631 -73.4433 18° North 164 189 7,000 -120 Level Boston Center
10:37 43.8069 -73.4269 15° North 164 189 6,800 -360 Descending Boston Center
10:38 43.8550 -73.4075 16° North 169 194 6,300 -540 Descending Boston Center
10:39 43.8750 -73.3993 16° North  Level Estimated
10:46 44.0152 -73.3420 16° North  Level Estimated
10:47 44.0352 -73.3338 16° North  Level Estimated
10:48 44.0552 -73.3256 16° North  Level Estimated
10:49 44.0752 -73.3174 16° North  Level Estimated
10:50 44.0952 -73.3091 16° North  Level Estimated
10:51 44.1153 -73.3009 16° North  Level Estimated
10:52 44.1353 -73.2927 16° North  Level Estimated
10:53 44.1553 -73.2844 16° North  Level Estimated
10:54 44.1753 -73.2762 16° North  Level Estimated
10:55 44.1953 -73.2679 16° North  Level Estimated
10:56 44.2153 -73.2597 16° North  Level Estimated
10:57 44.2354 -73.2514 16° North  Level Estimated
10:58 44.2554 -73.2431 16° North  Level Estimated
10:59 44.2754 -73.2348 16° North  Level Estimated
11:00 44.2954 -73.2266 16° North  Level Estimated